createdAt,value
2023-05-03T00:02:10.411Z,99163.22
2023-05-03T00:05:01.043Z,99154.19
2023-05-03T00:07:49.331Z,99163.47
2023-05-03T00:10:37.198Z,99158.66
2023-05-03T00:13:25.084Z,99169.75
2023-05-03T00:16:13.068Z,99162.16
2023-05-03T00:19:01.031Z,99156.19
2023-05-03T00:21:50.337Z,99160.19
2023-05-03T00:24:38.282Z,99159.72
2023-05-03T00:27:26.113Z,99156.56
2023-05-03T00:30:14.791Z,99164.88
2023-05-03T00:33:02.807Z,99158.47
2023-05-03T00:35:50.803Z,99155.34
2023-05-03T00:38:41.095Z,99164.38
2023-05-03T00:41:29.172Z,99162.94
2023-05-03T00:44:17.217Z,99155.94
2023-05-03T00:47:06.956Z,99162.41
2023-05-03T00:49:54.723Z,99162.53
2023-05-03T00:52:43.654Z,99161.94
2023-05-03T00:55:34.218Z,99162.53
2023-05-03T00:58:22.527Z,99155.91
2023-05-03T01:01:11.042Z,99155.41
2023-05-03T01:03:59.324Z,99162.13
2023-05-03T01:06:53.618Z,99163.53
2023-05-03T01:09:57.257Z,99157.72
2023-05-03T01:12:56.323Z,99161.34
2023-05-03T01:15:51.786Z,99156.06
2023-05-03T01:18:42.188Z,99146.78
2023-05-03T01:21:33.837Z,99146.16
2023-05-03T01:24:26.125Z,99142.06
2023-05-03T01:27:19.262Z,99141.34
2023-05-03T01:30:11.720Z,99139.66
2023-05-03T01:33:06.898Z,99141.34
2023-05-03T01:36:00.490Z,99140.09
2023-05-03T01:38:49.848Z,99142.97
2023-05-03T01:41:39.412Z,99144.16
2023-05-03T01:44:29.196Z,99144.38
2023-05-03T01:47:17.648Z,99144.63
2023-05-03T01:50:06.088Z,99143.88
2023-05-03T01:52:54.021Z,99142.31
2023-05-03T01:55:42.086Z,99138.81
2023-05-03T01:58:30.069Z,99141.69
2023-05-03T02:01:19.273Z,99153.44
2023-05-03T02:04:07.083Z,99147.63
2023-05-03T02:06:55.298Z,99149.78
2023-05-03T02:09:45.652Z,99144.72
2023-05-03T02:12:33.721Z,99140.94
2023-05-03T02:15:21.608Z,99144.97
2023-05-03T02:18:11.078Z,99143.50
2023-05-03T02:20:59.076Z,99147.97
2023-05-03T02:23:47.004Z,99150.72
2023-05-03T02:26:35.020Z,99149.44
2023-05-03T02:29:23.138Z,99147.97
2023-05-03T02:32:11.233Z,99146.41
2023-05-03T02:35:00.443Z,99136.28
2023-05-03T02:37:48.237Z,99154.13
2023-05-03T02:40:36.387Z,99150.88
2023-05-03T02:43:24.981Z,99151.81
2023-05-03T02:46:12.862Z,99159.22
2023-05-03T02:49:00.934Z,99157.53
2023-05-03T02:51:50.106Z,99150.78
2023-05-03T02:54:37.938Z,99150.97
2023-05-03T02:57:25.882Z,99140.13
2023-05-03T03:00:15.531Z,99138.03
2023-05-03T03:03:03.563Z,99138.34
2023-05-03T03:05:51.508Z,99150.78
2023-05-03T03:08:40.971Z,99148.38
2023-05-03T03:11:28.892Z,99158.38
2023-05-03T03:14:16.745Z,99157.50
2023-05-03T03:17:08.819Z,99158.38
2023-05-03T03:19:58.225Z,99150.13
2023-05-03T03:22:46.016Z,99154.13
2023-05-03T03:25:35.573Z,99152.66
2023-05-03T03:28:23.584Z,99155.72
2023-05-03T03:31:11.679Z,99150.75
2023-05-03T03:33:59.231Z,99161.50
2023-05-03T03:36:47.128Z,99155.59
2023-05-03T03:39:35.121Z,99160.44
2023-05-03T03:42:25.766Z,99165.03
2023-05-03T03:45:13.738Z,99164.31
2023-05-03T03:48:01.369Z,99163.78
2023-05-03T03:50:49.683Z,99173.69
2023-05-03T03:53:37.888Z,99176.44
2023-05-03T03:56:26.298Z,99182.63
2023-05-03T03:59:15.894Z,99185.47
2023-05-03T04:02:03.986Z,99189.81
2023-05-03T04:04:52.057Z,99187.16
2023-05-03T04:07:39.923Z,99192.63
2023-05-03T04:10:28.040Z,99194.81
2023-05-03T04:13:15.980Z,99193.25
2023-05-03T04:16:05.804Z,99194.00
2023-05-03T04:18:53.916Z,99198.69
2023-05-03T04:21:42.137Z,99203.31
2023-05-03T04:24:30.525Z,99198.91
2023-05-03T04:27:18.748Z,99219.78
2023-05-03T04:30:08.779Z,99221.47
2023-05-03T04:32:58.381Z,99225.72
2023-05-03T04:35:46.259Z,99224.47
2023-05-03T04:38:34.354Z,99230.50
2023-05-03T04:41:22.248Z,99240.69
2023-05-03T04:44:10.377Z,99250.75
2023-05-03T04:46:58.274Z,99249.72
2023-05-03T04:49:47.892Z,99247.31
2023-05-03T04:52:35.819Z,99252.09
2023-05-03T04:55:23.586Z,99248.00
2023-05-03T04:58:11.621Z,99246.63
2023-05-03T05:01:00.403Z,99249.84
2023-05-03T05:03:48.837Z,99245.06
2023-05-03T05:06:38.665Z,99259.06
2023-05-03T05:09:28.553Z,99251.91
2023-05-03T05:12:16.697Z,99259.28
2023-05-03T05:15:05.357Z,99263.75
2023-05-03T05:17:53.282Z,99263.34
2023-05-03T05:20:41.143Z,99262.69
2023-05-03T05:23:30.225Z,99269.97
2023-05-03T05:26:18.161Z,99271.22
2023-05-03T05:29:06.335Z,99266.28
2023-05-03T05:31:54.441Z,99260.97
2023-05-03T05:34:45.121Z,99264.88
2023-05-03T05:37:33.640Z,99269.28
2023-05-03T05:40:22.941Z,99277.63
2023-05-03T05:43:11.090Z,99277.81
2023-05-03T05:45:59.216Z,99273.38
2023-05-03T05:48:47.141Z,99274.50
2023-05-03T05:51:35.426Z,99279.13
2023-05-03T05:54:23.100Z,99277.50
2023-05-03T05:57:12.897Z,99282.94
2023-05-03T06:00:01.530Z,99273.81
2023-05-03T06:02:50.020Z,99276.63
2023-05-03T06:05:38.042Z,99279.75
2023-05-03T06:08:25.854Z,99282.81
2023-05-03T06:11:15.107Z,99277.94
2023-05-03T06:14:04.614Z,99285.25
2023-05-03T06:16:53.862Z,99282.03
2023-05-03T06:19:43.138Z,99286.88
2023-05-03T06:22:32.988Z,99284.75
2023-05-03T06:25:21.249Z,99273.69
2023-05-03T06:28:09.212Z,99279.22
2023-05-03T06:30:58.469Z,99278.69
2023-05-03T06:33:46.614Z,99272.91
2023-05-03T06:36:37.835Z,99269.44
2023-05-03T06:39:26.140Z,99268.75
2023-05-03T06:42:13.742Z,99271.38
2023-05-03T06:45:01.704Z,99270.78
2023-05-03T06:47:51.124Z,99263.66
2023-05-03T06:50:39.166Z,99270.91
2023-05-03T06:53:27.164Z,99269.94
2023-05-03T06:56:15.075Z,99262.19
2023-05-03T06:59:03.579Z,99258.69
2023-05-03T07:01:51.858Z,99265.78
2023-05-03T07:04:40.929Z,99261.16
2023-05-03T07:07:28.820Z,99254.13
2023-05-03T07:10:17.011Z,99257.31
2023-05-03T07:13:04.919Z,99251.94
2023-05-03T07:15:52.997Z,99257.09
2023-05-03T07:18:41.640Z,99250.75
2023-05-03T07:21:30.572Z,99247.06
2023-05-03T07:24:19.177Z,99243.13
2023-05-03T07:27:07.633Z,99228.78
2023-05-03T07:29:55.368Z,99228.41
2023-05-03T07:32:43.424Z,99221.78
2023-05-03T07:35:32.994Z,99224.50
2023-05-03T07:38:22.337Z,99216.56
2023-05-03T07:41:10.580Z,99217.31
2023-05-03T07:43:58.459Z,99217.47
2023-05-03T07:46:46.083Z,99218.63
2023-05-03T07:49:36.276Z,99201.44
2023-05-03T07:52:24.289Z,99209.16
2023-05-03T07:55:13.475Z,99195.53
2023-05-03T07:58:01.424Z,99193.03
2023-05-03T08:00:49.538Z,99188.97
2023-05-03T08:03:37.853Z,99195.91
2023-05-03T08:06:26.046Z,99190.69
2023-05-03T08:09:14.184Z,99179.50
2023-05-03T08:12:03.734Z,99179.97
2023-05-03T08:14:53.175Z,99170.94
2023-05-03T08:17:44.938Z,99170.53
2023-05-03T08:20:36.828Z,99158.09
2023-05-03T08:23:25.713Z,99156.47
2023-05-03T08:26:14.627Z,99159.06
2023-05-03T08:29:03.813Z,99156.16
2023-05-03T08:31:51.895Z,99163.50
2023-05-03T08:34:39.701Z,99155.78
2023-05-03T08:37:27.849Z,99153.72
2023-05-03T08:40:16.697Z,99150.22
2023-05-03T08:43:10.491Z,99146.53
2023-05-03T08:45:59.667Z,99149.34
2023-05-03T08:48:49.281Z,99142.50
2023-05-03T08:51:40.211Z,99144.28
2023-05-03T08:54:28.291Z,99147.63
2023-05-03T08:57:17.777Z,99145.44
2023-05-03T09:00:10.720Z,99149.22
2023-05-03T09:03:00.925Z,99149.06
2023-05-03T09:05:49.136Z,99141.81
2023-05-03T09:08:44.644Z,99138.22
2023-05-03T09:11:33.721Z,99132.75
2023-05-03T09:14:21.760Z,99135.22
2023-05-03T09:17:17.285Z,99130.47
2023-05-03T09:20:09.022Z,99142.63
2023-05-03T09:22:56.837Z,99141.50
2023-05-03T09:25:46.416Z,99144.69
2023-05-03T09:28:43.595Z,99131.38
2023-05-03T09:31:32.854Z,99136.97
2023-05-03T09:34:24.589Z,99138.47
2023-05-03T09:37:14.660Z,99138.47
2023-05-03T09:40:10.208Z,99135.44
2023-05-03T09:43:09.783Z,99127.34
2023-05-03T09:46:10.694Z,99117.63
2023-05-03T09:48:58.651Z,99117.03
2023-05-03T09:51:47.137Z,99119.97
2023-05-03T09:54:37.923Z,99120.50
2023-05-03T09:57:27.286Z,99108.00
2023-05-03T10:00:20.614Z,99112.31
2023-05-03T10:03:10.752Z,99104.31
2023-05-03T10:06:03.714Z,99116.28
2023-05-03T10:08:59.532Z,99106.38
2023-05-03T10:11:52.738Z,99101.50
2023-05-03T10:14:43.625Z,99109.19
2023-05-03T10:17:46.378Z,99095.00
2023-05-03T10:20:41.558Z,99094.50
2023-05-03T10:23:29.518Z,99088.31
2023-05-03T10:26:18.109Z,99090.75
2023-05-03T10:29:08.276Z,99087.91
2023-05-03T10:31:56.440Z,99080.84
2023-05-03T10:34:46.454Z,99082.84
2023-05-03T10:37:36.122Z,99078.13
2023-05-03T10:40:23.885Z,99082.59
2023-05-03T10:43:46.121Z,99087.00
2023-05-03T10:46:36.709Z,99082.88
2023-05-03T10:49:26.365Z,99090.53
2023-05-03T10:52:51.355Z,99080.75
2023-05-03T10:55:39.341Z,99078.72
2023-05-03T10:58:27.669Z,99082.59
2023-05-03T11:01:18.046Z,99078.84
2023-05-03T11:04:12.280Z,99076.72
2023-05-03T11:07:01.490Z,99073.91
2023-05-03T11:09:49.243Z,99062.78
2023-05-03T11:12:39.761Z,99072.53
2023-05-03T11:15:27.900Z,99055.75
2023-05-03T11:18:15.639Z,99048.94
2023-05-03T11:21:05.536Z,99046.38
2023-05-03T11:23:53.566Z,99042.19
2023-05-03T11:26:41.867Z,99040.03
2023-05-03T11:29:29.658Z,99040.47
2023-05-03T11:32:19.268Z,99036.41
2023-05-03T11:35:08.398Z,99036.25
2023-05-03T11:37:58.126Z,99037.59
2023-05-03T11:40:46.377Z,99028.19
2023-05-03T11:43:35.014Z,99039.91
2023-05-03T11:46:28.774Z,99034.09
2023-05-03T11:49:20.349Z,99029.16
2023-05-03T11:52:08.933Z,99037.78
2023-05-03T11:54:58.213Z,99040.72
2023-05-03T11:57:46.842Z,99040.00
2023-05-03T12:00:34.907Z,99038.63
2023-05-03T12:03:27.667Z,99027.00
2023-05-03T12:06:19.317Z,99027.88
2023-05-03T12:09:18.401Z,99025.75
2023-05-03T12:12:10.552Z,99013.19
2023-05-03T12:15:03.682Z,99009.78
2023-05-03T12:18:00.251Z,99011.22
2023-05-03T12:21:30.077Z,99009.84
2023-05-03T12:24:06.495Z,99008.28
2023-05-03T12:26:57.166Z,99006.78
2023-05-03T12:29:47.652Z,99009.13
2023-05-03T12:32:38.903Z,99003.25
2023-05-03T12:35:28.591Z,99008.75
2023-05-03T12:38:17.859Z,98996.66
2023-05-03T12:41:08.953Z,99001.81
2023-05-03T12:44:00.059Z,98998.22
2023-05-03T12:49:39.655Z,98992.94
2023-05-03T12:55:19.195Z,98990.44
2023-05-03T12:58:40.073Z,98991.34
2023-05-03T13:02:05.238Z,98976.81
2023-05-03T13:04:54.935Z,98979.94
2023-05-03T13:07:34.931Z,98972.84
2023-05-03T13:10:29.787Z,98965.53
2023-05-03T13:13:18.525Z,98960.63
2023-05-03T13:16:07.922Z,98951.06
2023-05-03T13:18:56.611Z,98955.25
2023-05-03T13:21:48.053Z,98952.25
2023-05-03T13:24:35.681Z,98953.09
2023-05-03T13:27:23.717Z,98951.44
2023-05-03T13:30:15.198Z,98952.28
2023-05-03T13:33:03.285Z,98948.78
2023-05-03T13:35:51.064Z,98950.69
2023-05-03T13:38:41.938Z,98941.09
2023-05-03T13:41:29.737Z,98931.25
2023-05-03T13:44:17.678Z,98932.00
2023-05-03T13:47:06.167Z,98924.00
2023-05-03T13:49:57.393Z,98928.44
2023-05-03T13:52:45.267Z,98929.88
2023-05-03T13:55:34.538Z,98925.78
2023-05-03T13:58:22.249Z,98930.44
2023-05-03T14:01:10.847Z,98925.19
2023-05-03T14:03:59.129Z,98920.22
2023-05-03T14:06:46.911Z,98919.94
2023-05-03T14:09:39.294Z,98918.78
2023-05-03T14:12:28.504Z,98920.78
2023-05-03T14:15:16.953Z,98924.63
2023-05-03T14:18:06.013Z,98922.31
2023-05-03T14:20:55.058Z,98915.59
2023-05-03T14:23:42.635Z,98914.47
2023-05-03T14:26:30.534Z,98909.56
2023-05-03T14:29:19.942Z,98912.00
2023-05-03T14:32:08.296Z,98899.47
2023-05-03T14:34:56.915Z,98909.03
2023-05-03T14:37:44.937Z,98904.81
2023-05-03T14:40:33.184Z,98904.84
2023-05-03T14:43:21.355Z,98901.03
2023-05-03T14:46:10.798Z,98905.47
2023-05-03T14:48:59.312Z,98902.50
2023-05-03T14:51:47.516Z,98897.84
2023-05-03T14:54:35.419Z,98902.50
2023-05-03T14:57:23.499Z,98895.13
2023-05-03T15:00:14.428Z,98890.19
2023-05-03T15:03:03.679Z,98889.66
2023-05-03T15:05:52.179Z,98893.75
2023-05-03T15:08:40.248Z,98893.47
2023-05-03T15:11:28.601Z,98880.84
2023-05-03T15:14:17.503Z,98885.25
2023-05-03T15:17:05.573Z,98889.38
2023-05-03T15:19:54.794Z,98879.75
2023-05-03T15:22:42.735Z,98878.66
2023-05-03T15:25:30.600Z,98873.75
2023-05-03T15:28:18.555Z,98881.72
2023-05-03T15:31:06.746Z,98870.44
2023-05-03T15:33:54.695Z,98860.53
2023-05-03T15:36:44.072Z,98865.47
2023-05-03T15:39:31.793Z,98871.50
2023-05-03T15:42:19.751Z,98866.84
2023-05-03T15:45:09.780Z,98861.91
2023-05-03T15:47:58.116Z,98860.00
2023-05-03T15:50:46.239Z,98860.28
2023-05-03T15:53:35.503Z,98851.19
2023-05-03T15:56:23.211Z,98848.97
2023-05-03T15:59:14.818Z,98844.00
2023-05-03T16:02:03.855Z,98839.31
2023-05-03T16:04:52.045Z,98837.94
2023-05-03T16:07:40.177Z,98845.09
2023-05-03T16:10:29.582Z,98842.38
2023-05-03T16:13:17.435Z,98848.72
2023-05-03T16:16:05.794Z,98844.31
2023-05-03T16:18:53.816Z,98843.47
2023-05-03T16:21:41.645Z,98834.94
2023-05-03T16:24:29.568Z,98823.69
2023-05-03T16:27:18.908Z,98836.06
2023-05-03T16:30:07.974Z,98826.16
2023-05-03T16:32:56.146Z,98824.00
2023-05-03T16:35:43.891Z,98822.06
2023-05-03T16:38:32.142Z,98831.97
2023-05-03T16:41:20.064Z,98827.31
2023-05-03T16:44:10.327Z,98828.13
2023-05-03T16:46:58.412Z,98822.91
2023-05-03T16:49:46.264Z,98826.19
2023-05-03T16:52:39.380Z,98833.78
2023-05-03T16:55:27.256Z,98829.88
2023-05-03T16:58:15.553Z,98827.31
2023-05-03T17:01:04.845Z,98832.59
2023-05-03T17:03:52.737Z,98828.69
2023-05-03T17:06:40.465Z,98826.97
2023-05-03T17:09:31.378Z,98833.91
2023-05-03T17:12:19.505Z,98828.53
2023-05-03T17:15:08.834Z,98833.28
2023-05-03T17:17:58.543Z,98834.19
2023-05-03T17:20:46.527Z,98840.84
2023-05-03T17:23:35.774Z,98829.69
2023-05-03T17:26:23.951Z,98833.47
2023-05-03T17:29:11.985Z,98839.25
2023-05-03T17:32:00.074Z,98840.94
2023-05-03T17:34:49.184Z,98835.47
2023-05-03T17:37:37.619Z,98835.03
2023-05-03T17:40:25.694Z,98838.84
2023-05-03T17:43:14.091Z,98847.66
2023-05-03T17:46:10.698Z,98847.16
2023-05-03T17:48:58.626Z,98849.72
2023-05-03T17:51:48.157Z,98851.13
2023-05-03T17:54:36.420Z,98842.69
2023-05-03T17:57:24.011Z,98852.16
2023-05-03T18:00:15.433Z,98846.19
2023-05-03T18:03:07.928Z,98854.75
2023-05-03T18:05:56.549Z,98850.59
2023-05-03T18:08:45.620Z,98860.75
2023-05-03T18:11:33.539Z,98858.19
2023-05-03T18:14:21.222Z,98855.41
2023-05-03T18:17:09.211Z,98860.88
2023-05-03T18:19:57.143Z,98868.03
2023-05-03T18:22:45.308Z,98864.31
2023-05-03T18:25:34.495Z,98858.91
2023-05-03T18:28:23.860Z,98865.94
2023-05-03T18:31:12.716Z,98859.66
2023-05-03T18:34:00.946Z,98862.09
2023-05-03T18:36:49.087Z,98865.94
2023-05-03T18:39:36.883Z,98867.28
2023-05-03T18:42:26.525Z,98867.75
2023-05-03T18:45:17.371Z,98869.69
2023-05-03T18:48:05.626Z,98869.72
2023-05-03T18:50:53.479Z,98877.84
2023-05-03T18:53:41.360Z,98878.88
2023-05-03T18:56:31.274Z,98874.50
2023-05-03T18:59:20.687Z,98888.75
2023-05-03T19:02:10.693Z,98893.06
2023-05-03T19:05:00.100Z,98891.16
2023-05-03T19:07:48.880Z,98891.72
2023-05-03T19:10:36.912Z,98893.94
2023-05-03T19:13:25.028Z,98901.50
2023-05-03T19:16:15.524Z,98901.00
2023-05-03T19:19:03.877Z,98904.84
2023-05-03T19:21:51.751Z,98900.59
2023-05-03T19:24:39.929Z,98903.59
2023-05-03T19:27:28.554Z,98905.38
2023-05-03T19:30:17.237Z,98914.50
2023-05-03T19:33:06.916Z,98919.97
2023-05-03T19:35:57.485Z,98927.28
2023-05-03T19:38:45.587Z,98918.81
2023-05-03T19:41:33.873Z,98921.38
2023-05-03T19:44:21.859Z,98921.25
2023-05-03T19:47:21.450Z,98917.72
2023-05-03T19:50:12.175Z,98924.75
2023-05-03T19:53:00.119Z,98926.47
2023-05-03T19:55:56.752Z,98923.63
2023-05-03T19:58:46.446Z,98926.13
2023-05-03T20:01:34.365Z,98930.31
2023-05-03T20:04:23.347Z,98940.66
2023-05-03T20:07:12.957Z,98940.28
2023-05-03T20:10:00.703Z,98939.03
2023-05-03T20:12:48.743Z,98938.66
2023-05-03T20:15:37.726Z,98945.28
2023-05-03T20:18:28.744Z,98949.25
2023-05-03T20:21:19.047Z,98947.69
2023-05-03T20:24:10.944Z,98944.47
2023-05-03T20:26:58.820Z,98936.72
2023-05-03T20:29:46.800Z,98942.16
2023-05-03T20:32:36.416Z,98945.28
2023-05-03T20:35:26.597Z,98938.34
2023-05-03T20:38:14.602Z,98946.63
2023-05-03T20:41:04.072Z,98949.50
2023-05-03T20:43:53.981Z,98947.88
2023-05-03T20:46:42.048Z,98942.50
2023-05-03T20:49:30.068Z,98944.41
2023-05-03T20:52:18.230Z,98942.81
2023-05-03T20:55:07.291Z,98947.91
2023-05-03T20:57:57.206Z,98948.84
2023-05-03T21:00:45.570Z,98943.41
2023-05-03T21:03:33.875Z,98954.00
2023-05-03T21:06:21.960Z,98957.16
2023-05-03T21:09:10.421Z,98951.75
2023-05-03T21:11:59.380Z,98955.00
2023-05-03T21:14:49.063Z,98953.06
2023-05-03T21:17:36.816Z,98963.47
2023-05-03T21:20:24.659Z,98953.41
2023-05-03T21:23:13.420Z,98957.63
2023-05-03T21:26:01.272Z,98959.03
2023-05-03T21:28:49.185Z,98964.41
2023-05-03T21:31:40.060Z,98959.66
2023-05-03T21:34:28.164Z,98962.06
2023-05-03T21:37:15.798Z,98961.09
2023-05-03T21:40:03.908Z,98962.81
2023-05-03T21:42:52.696Z,98960.00
2023-05-03T21:45:43.897Z,98969.41
2023-05-03T21:48:33.569Z,98965.66
2023-05-03T21:51:21.558Z,98966.22
2023-05-03T21:54:09.757Z,98958.09
2023-05-03T21:56:57.857Z,98957.97
2023-05-03T21:59:46.470Z,98959.53
2023-05-03T22:02:34.541Z,98961.06
2023-05-03T22:05:24.335Z,98957.25
2023-05-03T22:08:14.286Z,98949.84
2023-05-03T22:11:05.084Z,98955.03
2023-05-03T22:14:06.796Z,98958.94
2023-05-03T22:16:56.559Z,98949.00
2023-05-03T22:19:44.520Z,98948.56
2023-05-03T22:22:33.889Z,98949.13
2023-05-03T22:25:25.327Z,98948.72
2023-05-03T22:28:13.280Z,98952.00
2023-05-03T22:31:01.294Z,98950.75
2023-05-03T22:33:49.437Z,98954.09
2023-05-03T22:36:37.631Z,98957.28
2023-05-03T22:39:26.765Z,98951.78
2023-05-03T22:42:14.601Z,98954.03
2023-05-03T22:45:03.359Z,98949.38
2023-05-03T22:47:51.414Z,98943.75
2023-05-03T22:50:39.413Z,98937.19
2023-05-03T22:53:27.461Z,98943.88
2023-05-03T22:56:16.825Z,98943.53
2023-05-03T22:59:04.920Z,98941.72
2023-05-03T23:01:53.083Z,98941.25
2023-05-03T23:04:41.403Z,98941.09
2023-05-03T23:07:29.438Z,98939.78
2023-05-03T23:10:17.672Z,98938.63
2023-05-03T23:13:07.267Z,98939.88
2023-05-03T23:15:56.378Z,98935.81
2023-05-03T23:18:44.311Z,98941.91
2023-05-03T23:21:32.420Z,98943.38
2023-05-03T23:24:20.240Z,98942.91
2023-05-03T23:27:08.855Z,98937.88
2023-05-03T23:29:58.548Z,98940.34
2023-05-03T23:32:47.819Z,98956.75
2023-05-03T23:35:35.996Z,98950.00
2023-05-03T23:38:24.346Z,98953.88
2023-05-03T23:41:12.319Z,98945.50
2023-05-03T23:44:00.490Z,98945.41
2023-05-03T23:46:49.823Z,98948.69
2023-05-03T23:49:37.777Z,98947.00
2023-05-03T23:52:26.399Z,98948.69
2023-05-03T23:55:14.444Z,98946.41
2023-05-03T23:58:02.724Z,98948.81
